Time;durP1;ratioP1;P1;durP2;ratioP2;P2;SDS_P1;SDS_P2;PMS_P1;PMS_P2;Temp;Humidity;BMP_temperature;BMP_pressure;BME280_temperature;BME280_humidity;BME280_pressure;Samples;Min_cycle;Max_cycle;Signal;HPM_P1;HPM_P2
2024/03/14 00:00:17;;;;;;;11.10;7.70;;;;;;;11.52;56.49;101151.95;107133;1272;25363;-59
2024/03/14 00:02:47;;;;;;;13.60;7.90;;;;;;;11.53;56.58;101150.02;106987;1265;25325;-59
2024/03/14 00:05:14;;;;;;;14.50;8.90;;;;;;;11.54;56.59;101153.30;106839;1265;25353;-58
2024/03/14 00:07:42;;;;;;;15.40;8.20;;;;;;;11.55;56.64;101155.19;107135;1270;25352;-59
2024/03/14 00:10:09;;;;;;;11.30;8.60;;;;;;;11.57;56.71;101159.85;107220;1257;25363;-58
2024/03/14 00:12:37;;;;;;;14.70;8.60;;;;;;;11.60;56.57;101158.94;107083;1267;25363;-59
2024/03/14 00:15:04;;;;;;;15.90;8.60;;;;;;;11.60;56.39;101164.65;106772;1274;25332;-60
2024/03/14 00:17:33;;;;;;;16.70;8.30;;;;;;;11.61;56.41;101164.98;107006;1267;25440;-59
2024/03/14 00:20:00;;;;;;;12.10;8.20;;;;;;;11.63;56.32;101165.10;107129;1266;25484;-59
2024/03/14 00:22:27;;;;;;;15.00;8.30;;;;;;;11.65;56.38;101164.57;106904;1257;25347;-59
2024/03/14 00:24:55;;;;;;;15.20;7.60;;;;;;;11.66;56.16;101170.63;106215;1257;1003737;-63
2024/03/14 00:27:22;;;;;;;13.40;7.50;;;;;;;11.65;55.96;101165.06;106840;1256;25526;-59
2024/03/14 00:29:49;;;;;;;12.80;7.80;;;;;;;11.63;55.90;101165.81;106052;1256;1003577;-59
2024/03/14 00:32:17;;;;;;;14.20;7.40;;;;;;;11.62;55.88;101165.15;106549;1259;25352;-59
2024/03/14 00:34:44;;;;;;;14.00;7.60;;;;;;;11.60;55.81;101164.31;107154;1266;25491;-59
2024/03/14 00:37:11;;;;;;;13.60;8.50;;;;;;;11.57;55.75;101162.10;107077;1263;25341;-59
2024/03/14 00:39:38;;;;;;;19.00;8.20;;;;;;;11.57;55.89;101164.20;107091;1265;25528;-59
2024/03/14 00:42:06;;;;;;;16.20;8.00;;;;;;;11.56;55.88;101159.34;107019;1263;25417;-59
2024/03/14 00:44:33;;;;;;;15.80;8.10;;;;;;;11.57;55.87;101154.63;106840;1263;25424;-60
2024/03/14 00:47:00;;;;;;;12.10;7.20;;;;;;;11.56;55.80;101158.31;106851;1259;22534;-60
2024/03/14 00:49:27;;;;;;;10.90;6.60;;;;;;;11.55;55.72;101156.92;106918;1274;25362;-60
2024/03/14 00:51:57;;;;;;;13.60;8.10;;;;;;;11.54;55.65;101157.48;107124;1268;25384;-59
2024/03/14 00:54:24;;;;;;;11.90;7.30;;;;;;;11.52;55.64;101155.42;107048;1261;24372;-59
2024/03/14 00:56:52;;;;;;;12.80;6.80;;;;;;;11.51;55.76;101156.66;107178;1266;25325;-59
2024/03/14 00:59:20;;;;;;;11.90;7.90;;;;;;;11.48;55.71;101159.13;107172;1257;25373;-59
2024/03/14 01:01:46;;;;;;;11.30;7.10;;;;;;;11.47;55.83;101158.30;107079;1266;25354;-60
2024/03/14 01:04:14;;;;;;;11.90;7.30;;;;;;;11.46;55.96;101160.39;106730;1257;26237;-59
2024/03/14 01:06:42;;;;;;;12.50;7.30;;;;;;;11.48;56.08;101166.28;106973;1257;24201;-59
2024/03/14 01:09:11;;;;;;;13.70;7.50;;;;;;;11.48;55.97;101166.64;107043;1266;25565;-59
2024/03/14 01:11:40;;;;;;;11.90;6.90;;;;;;;11.48;56.09;101164.91;106073;1261;1002862;-59
2024/03/14 01:14:07;;;;;;;12.20;7.00;;;;;;;11.48;56.10;101165.22;107151;1257;25495;-59
2024/03/14 01:16:34;;;;;;;13.90;7.70;;;;;;;11.49;56.04;101164.70;107085;1257;25484;-59
2024/03/14 01:19:01;;;;;;;12.00;7.30;;;;;;;11.48;56.06;101165.07;107086;1263;22642;-60
2024/03/14 01:21:28;;;;;;;11.10;7.10;;;;;;;11.47;56.06;101166.65;107069;1260;25416;-59
2024/03/14 01:23:57;;;;;;;11.80;7.40;;;;;;;11.48;56.16;101165.23;107112;1267;25373;-59
2024/03/14 01:26:24;;;;;;;12.20;6.70;;;;;;;11.48;56.27;101168.18;107136;1257;25337;-60
2024/03/14 01:28:51;;;;;;;16.40;7.70;;;;;;;11.48;56.19;101169.73;107028;1264;24209;-59
2024/03/14 01:31:18;;;;;;;9.40;6.50;;;;;;;11.48;56.14;101167.85;107059;1257;25574;-59
2024/03/14 01:33:46;;;;;;;11.60;6.70;;;;;;;11.48;56.13;101169.76;107090;1269;25328;-59
2024/03/14 01:36:14;;;;;;;13.30;7.20;;;;;;;11.46;56.09;101169.43;106769;1268;22545;-59
2024/03/14 01:38:42;;;;;;;10.60;7.10;;;;;;;11.44;56.05;101167.73;107054;1257;25422;-59
2024/03/14 01:41:19;;;;;;;10.00;7.40;;;;;;;11.42;56.12;101165.68;106606;1274;25334;-60
2024/03/14 01:43:58;;;;;;;8.90;6.50;;;;;;;11.41;56.10;101164.14;106686;1274;25334;-60
2024/03/14 01:46:30;;;;;;;10.10;7.20;;;;;;;11.41;56.18;101164.15;106710;1266;25348;-60
2024/03/14 01:48:58;;;;;;;10.30;7.20;;;;;;;11.42;56.25;101163.95;106908;1254;22539;-60
2024/03/14 01:51:25;;;;;;;10.50;6.80;;;;;;;11.43;56.30;101163.24;106944;1263;22523;-60
2024/03/14 01:53:53;;;;;;;12.00;8.10;;;;;;;11.42;56.33;101162.05;106842;1258;25464;-60
2024/03/14 01:56:23;;;;;;;12.80;7.90;;;;;;;11.40;56.33;101160.86;107031;1264;25452;-60
2024/03/14 01:58:53;;;;;;;14.30;8.50;;;;;;;11.39;56.45;101161.40;106331;1257;1003716;-60
2024/03/14 02:01:27;;;;;;;10.60;7.20;;;;;;;11.39;56.36;101160.02;107012;1270;25358;-60
2024/03/14 02:04:01;;;;;;;12.90;7.60;;;;;;;11.37;56.34;101162.12;106957;1270;25380;-60
2024/03/14 02:06:47;;;;;;;15.70;8.60;;;;;;;11.36;56.36;101161.11;107010;1257;22534;-60
2024/03/14 02:09:16;;;;;;;10.70;7.20;;;;;;;11.35;56.49;101161.83;106839;1270;25979;-60
2024/03/14 02:11:43;;;;;;;11.90;8.10;;;;;;;11.32;56.43;101163.27;106844;1271;25373;-60
2024/03/14 02:14:11;;;;;;;11.10;7.50;;;;;;;11.27;56.35;101164.23;107014;1257;25353;-60
2024/03/14 02:16:38;;;;;;;14.20;8.20;;;;;;;11.23;56.45;101165.87;107191;1257;25377;-61
2024/03/14 02:19:07;;;;;;;10.50;7.90;;;;;;;11.18;56.52;101166.65;107047;1258;25498;-60
2024/03/14 02:21:34;;;;;;;9.80;6.80;;;;;;;11.15;56.50;101166.52;107054;1266;25406;-60
2024/03/14 02:24:02;;;;;;;8.70;7.10;;;;;;;11.11;56.44;101167.12;107041;1257;25338;-60
2024/03/14 02:26:29;;;;;;;10.60;7.20;;;;;;;11.09;56.52;101163.52;106707;1261;25410;-60
2024/03/14 02:28:56;;;;;;;10.70;7.60;;;;;;;11.07;56.63;101163.89;106766;1260;25334;-60
2024/03/14 02:31:23;;;;;;;11.10;7.10;;;;;;;11.07;56.55;101161.98;106834;1260;22541;-60
2024/03/14 02:33:51;;;;;;;9.80;7.60;;;;;;;11.06;56.51;101166.17;107093;1254;25358;-60
2024/03/14 02:36:18;;;;;;;12.70;8.00;;;;;;;11.02;56.43;101167.98;106211;1257;1003498;-60
2024/03/14 02:38:45;;;;;;;10.10;7.30;;;;;;;10.97;56.49;101168.58;107005;1267;25408;-60
2024/03/14 02:41:12;;;;;;;10.80;6.90;;;;;;;10.93;56.66;101170.38;107016;1254;25363;-60
2024/03/14 02:43:41;;;;;;;7.80;6.90;;;;;;;10.88;56.76;101177.06;106740;1274;25433;-60
2024/03/14 02:46:08;;;;;;;10.20;7.70;;;;;;;10.84;56.77;101180.07;106957;1257;25500;-60
2024/03/14 02:48:36;;;;;;;11.50;7.80;;;;;;;10.82;56.92;101179.94;106816;1260;25487;-60
2024/03/14 02:51:03;;;;;;;8.20;6.90;;;;;;;10.79;57.06;101184.32;106887;1260;25365;-60
2024/03/14 02:53:30;;;;;;;11.40;6.80;;;;;;;10.77;57.08;101181.59;106682;1271;25422;-60
2024/03/14 02:55:57;;;;;;;8.30;6.30;;;;;;;10.77;57.15;101180.55;106937;1270;25385;-60
2024/03/14 02:58:25;;;;;;;10.50;6.90;;;;;;;10.75;56.98;101183.69;106962;1257;25561;-60
2024/03/14 03:00:53;;;;;;;9.10;6.90;;;;;;;10.74;57.07;101182.84;107024;1258;25378;-60
2024/03/14 03:03:21;;;;;;;12.70;7.30;;;;;;;10.73;57.06;101186.51;107081;1267;25386;-60
2024/03/14 03:05:49;;;;;;;11.70;7.30;;;;;;;10.70;57.01;101188.80;106936;1258;25404;-60
2024/03/14 03:08:17;;;;;;;7.20;6.50;;;;;;;10.69;57.08;101189.52;106821;1261;25368;-60
2024/03/14 03:10:44;;;;;;;10.70;7.20;;;;;;;10.68;56.95;101189.19;105948;1258;1002898;-60
2024/03/14 03:13:11;;;;;;;8.30;6.20;;;;;;;10.65;57.00;101194.77;107036;1254;24216;-60
2024/03/14 03:15:38;;;;;;;9.40;6.90;;;;;;;10.62;57.04;101195.86;106955;1260;25360;-60
2024/03/14 03:18:07;;;;;;;8.90;6.20;;;;;;;10.60;57.03;101197.63;106997;1257;25369;-60
2024/03/14 03:20:35;;;;;;;9.80;5.90;;;;;;;10.58;57.10;101204.25;106710;1267;25464;-60
2024/03/14 03:23:09;;;;;;;8.00;5.70;;;;;;;10.58;57.14;101203.73;106305;1258;1002967;-60
2024/03/14 03:25:36;;;;;;;7.70;6.10;;;;;;;10.57;57.17;101206.70;107096;1254;23735;-58
2024/03/14 03:28:03;;;;;;;7.40;6.10;;;;;;;10.57;57.17;101208.95;106924;1264;25386;-60
2024/03/14 03:30:31;;;;;;;7.90;5.20;;;;;;;10.58;57.15;101209.46;107012;1257;25434;-60
2024/03/14 03:33:00;;;;;;;7.60;5.60;;;;;;;10.59;57.11;101215.51;107051;1258;25337;-59
2024/03/14 03:35:27;;;;;;;6.40;5.40;;;;;;;10.61;57.13;101219.32;106818;1254;25422;-59
2024/03/14 03:37:55;;;;;;;9.00;5.70;;;;;;;10.63;57.09;101220.48;106735;1260;25345;-60
2024/03/14 03:40:22;;;;;;;6.90;5.80;;;;;;;10.64;57.12;101226.20;106939;1264;25348;-59
2024/03/14 03:42:52;;;;;;;9.10;5.90;;;;;;;10.64;56.86;101226.73;107044;1257;22524;-59
2024/03/14 03:45:20;;;;;;;8.30;6.50;;;;;;;10.63;56.86;101228.45;106760;1271;25389;-59
2024/03/14 03:47:47;;;;;;;9.30;5.70;;;;;;;10.63;56.79;101231.41;106724;1264;25484;-59
2024/03/14 03:50:15;;;;;;;8.00;6.30;;;;;;;10.63;56.85;101232.13;106775;1267;25382;-59
2024/03/14 03:52:42;;;;;;;7.80;5.80;;;;;;;10.62;56.67;101234.23;107136;1264;25412;-59
2024/03/14 03:55:16;;;;;;;7.40;5.80;;;;;;;10.60;56.67;101234.60;107009;1255;25393;-59
2024/03/14 03:57:46;;;;;;;7.40;5.30;;;;;;;10.59;56.67;101239.45;107055;1256;25373;-59
2024/03/14 04:01:06;;;;;;;8.90;6.20;;;;;;;10.58;56.83;101239.47;107146;1256;25398;-59
2024/03/14 04:03:07;;;;;;;6.70;5.80;;;;;;;10.58;56.73;101240.86;107105;1261;25357;-59
2024/03/14 04:05:35;;;;;;;8.30;6.40;;;;;;;10.57;56.82;101244.17;107073;1258;25415;-59
2024/03/14 04:08:04;;;;;;;9.30;5.80;;;;;;;10.58;56.98;101246.93;107064;1257;25395;-59
2024/03/14 04:10:32;;;;;;;7.40;6.30;;;;;;;10.59;56.88;101249.36;107180;1257;25492;-59
2024/03/14 04:13:00;;;;;;;8.10;6.30;;;;;;;10.58;56.69;101251.95;107056;1251;25360;-59
2024/03/14 04:15:30;;;;;;;9.30;6.50;;;;;;;10.56;56.63;101253.21;107050;1261;25345;-59
2024/03/14 04:17:57;;;;;;;8.30;6.30;;;;;;;10.54;56.75;101251.67;106825;1271;25345;-59
2024/03/14 04:20:27;;;;;;;10.20;6.50;;;;;;;10.53;56.79;101254.30;107149;1251;24281;-59
2024/03/14 04:22:55;;;;;;;9.90;6.90;;;;;;;10.53;56.90;101256.89;106377;1257;1003366;-59
2024/03/14 04:25:22;;;;;;;7.60;6.50;;;;;;;10.50;56.69;101258.13;106801;1257;25522;-59
2024/03/14 04:27:53;;;;;;;8.50;7.00;;;;;;;10.47;56.70;101256.95;106866;1259;25501;-60
2024/03/14 04:30:23;;;;;;;8.10;6.70;;;;;;;10.45;56.83;101256.66;107180;1253;25466;-59
2024/03/14 04:32:51;;;;;;;9.30;6.70;;;;;;;10.42;56.96;101257.04;107084;1256;25293;-59
2024/03/14 04:35:20;;;;;;;8.10;6.60;;;;;;;10.42;57.08;101261.02;107115;1259;22546;-60
2024/03/14 04:37:51;;;;;;;7.60;6.70;;;;;;;10.38;57.05;101260.03;107050;1257;22555;-59
2024/03/14 04:40:21;;;;;;;9.30;7.00;;;;;;;10.38;57.13;101261.42;106829;1258;22556;-58
2024/03/14 04:42:55;;;;;;;8.90;6.70;;;;;;;10.36;57.22;101258.33;107130;1259;22541;-59
2024/03/14 04:45:22;;;;;;;7.80;7.00;;;;;;;10.35;57.31;101260.79;107122;1253;25373;-59
2024/03/14 04:47:50;;;;;;;9.20;7.30;;;;;;;10.32;57.24;101262.20;107007;1260;25378;-59
2024/03/14 04:50:21;;;;;;;7.90;6.30;;;;;;;10.30;57.41;101264.65;106298;1267;1003747;-59
2024/03/14 04:52:54;;;;;;;9.00;6.50;;;;;;;10.28;57.52;101264.68;107076;1256;25382;-59
2024/03/14 04:55:23;;;;;;;7.60;6.50;;;;;;;10.27;57.63;101266.77;107070;1253;25261;-59
2024/03/14 04:57:51;;;;;;;7.80;6.80;;;;;;;10.26;57.46;101269.20;106460;1267;1003043;-59
2024/03/14 05:00:20;;;;;;;9.50;7.40;;;;;;;10.25;57.69;101269.91;107183;1255;25396;-59
2024/03/14 05:02:50;;;;;;;8.10;7.20;;;;;;;10.25;57.61;101271.14;106765;1258;24288;-58
2024/03/14 05:05:18;;;;;;;10.30;7.90;;;;;;;10.23;57.54;101270.98;107034;1252;25383;-59
2024/03/14 05:07:45;;;;;;;9.20;7.20;;;;;;;10.22;57.43;101272.38;106241;1263;1003795;-58
2024/03/14 05:10:18;;;;;;;8.90;7.40;;;;;;;10.21;57.33;101275.86;106812;1264;25425;-58
2024/03/14 05:12:46;;;;;;;10.20;7.30;;;;;;;10.20;57.52;101278.47;107078;1254;25504;-58
2024/03/14 05:15:14;;;;;;;7.90;7.10;;;;;;;10.22;57.63;101283.13;106312;1260;1002941;-59
2024/03/14 05:17:42;;;;;;;8.80;7.30;;;;;;;10.24;57.59;101287.79;107094;1255;25415;-58
2024/03/14 05:20:13;;;;;;;9.30;7.40;;;;;;;10.24;57.50;101290.39;107104;1258;25440;-59
2024/03/14 05:22:40;;;;;;;10.00;7.80;;;;;;;10.26;57.74;101292.61;107091;1257;25348;-58
2024/03/14 05:25:09;;;;;;;9.00;7.90;;;;;;;10.29;57.62;101296.23;106746;1256;25388;-59
2024/03/14 05:27:36;;;;;;;10.90;7.60;;;;;;;10.30;57.64;101300.02;106225;1257;1003672;-60
2024/03/14 05:30:05;;;;;;;8.30;7.50;;;;;;;10.30;57.40;101302.45;106925;1258;25796;-59
2024/03/14 05:32:32;;;;;;;9.60;6.70;;;;;;;10.31;57.48;101304.52;106029;1254;1003634;-59
2024/03/14 05:35:00;;;;;;;11.70;7.20;;;;;;;10.33;57.69;101308.32;106772;1263;22555;-59
2024/03/14 05:37:29;;;;;;;8.60;7.00;;;;;;;10.36;57.65;101314.35;107161;1267;25451;-60
2024/03/14 05:39:56;;;;;;;8.70;7.20;;;;;;;10.39;57.70;101316.38;106777;1267;25338;-59
2024/03/14 05:42:23;;;;;;;7.30;6.50;;;;;;;10.43;57.62;101316.87;107035;1257;25403;-59
2024/03/14 05:44:50;;;;;;;8.80;7.00;;;;;;;10.45;57.45;101320.30;106768;1267;25383;-60
2024/03/14 05:47:18;;;;;;;11.80;8.00;;;;;;;10.46;57.38;101324.80;106892;1267;25348;-60
2024/03/14 05:49:44;;;;;;;9.20;7.30;;;;;;;10.46;57.48;101327.41;107003;1251;25430;-60
2024/03/14 05:52:12;;;;;;;8.50;6.60;;;;;;;10.48;57.44;101327.72;106881;1267;25391;-60
2024/03/14 05:54:40;;;;;;;8.90;7.80;;;;;;;10.49;57.35;101327.02;106661;1267;25416;-60
2024/03/14 05:57:06;;;;;;;9.90;8.10;;;;;;;10.49;57.17;101328.58;107018;1268;24202;-59
2024/03/14 05:59:36;;;;;;;9.70;7.70;;;;;;;10.49;57.07;101328.58;106784;1259;25367;-59
2024/03/14 06:02:04;;;;;;;11.50;7.90;;;;;;;10.47;57.14;101327.04;107094;1264;25545;-58
2024/03/14 06:04:31;;;;;;;8.60;7.10;;;;;;;10.47;57.20;101328.43;107046;1257;25348;-60
2024/03/14 06:06:58;;;;;;;9.30;7.30;;;;;;;10.49;57.29;101328.40;106383;1267;1002990;-58
2024/03/14 06:09:41;;;;;;;8.00;7.10;;;;;;;10.49;57.34;101331.86;107005;1266;25431;-59
2024/03/14 06:12:09;;;;;;;8.60;6.70;;;;;;;10.50;57.35;101334.47;107009;1267;25407;-59
2024/03/14 06:14:39;;;;;;;8.20;6.90;;;;;;;10.51;57.37;101339.49;107052;1263;25348;-59
2024/03/14 06:17:06;;;;;;;10.70;7.30;;;;;;;10.53;57.29;101339.48;107192;1267;25348;-59
2024/03/14 06:19:33;;;;;;;10.70;7.10;;;;;;;10.53;57.05;101343.46;107098;1264;25314;-59
2024/03/14 06:22:00;;;;;;;9.00;7.30;;;;;;;10.52;56.91;101347.45;106249;1257;1003849;-58
2024/03/14 06:24:28;;;;;;;7.90;6.90;;;;;;;10.52;57.06;101350.05;107038;1256;25410;-58
2024/03/14 06:26:55;;;;;;;9.90;7.50;;;;;;;10.51;56.97;101353.35;107119;1267;25363;-59
2024/03/14 06:29:22;;;;;;;8.10;7.20;;;;;;;10.50;56.92;101357.36;107118;1267;25376;-59
2024/03/14 06:31:50;;;;;;;8.40;7.50;;;;;;;10.49;56.84;101354.77;107038;1267;25564;-58
2024/03/14 06:34:18;;;;;;;10.60;7.10;;;;;;;10.48;56.90;101361.37;107116;1267;25344;-59
2024/03/14 06:36:45;;;;;;;9.80;6.80;;;;;;;10.47;56.93;101356.70;107065;1272;25409;-60
2024/03/14 06:39:17;;;;;;;12.50;7.80;;;;;;;10.45;56.92;101360.71;107084;1267;24393;-59
2024/03/14 06:41:44;;;;;;;9.60;7.70;;;;;;;10.47;57.19;101360.70;107107;1267;25485;-58
2024/03/14 06:44:13;;;;;;;13.00;7.20;;;;;;;10.49;57.00;101364.66;107024;1273;25345;-58
2024/03/14 06:46:40;;;;;;;8.90;6.90;;;;;;;10.49;56.92;101368.11;107027;1267;25414;-59
2024/03/14 06:49:13;;;;;;;9.50;6.90;;;;;;;10.50;57.03;101366.90;106863;1270;25373;-58
2024/03/14 06:51:43;;;;;;;10.30;7.80;;;;;;;10.51;57.11;101371.57;106826;1251;25411;-59
2024/03/14 06:54:12;;;;;;;8.70;6.80;;;;;;;10.51;56.99;101372.60;106934;1269;25348;-59
2024/03/14 06:56:40;;;;;;;10.70;7.30;;;;;;;10.51;56.89;101373.65;107070;1266;25385;-59
2024/03/14 06:59:07;;;;;;;10.50;7.50;;;;;;;10.49;56.82;101373.33;107070;1267;25530;-59
2024/03/14 07:01:35;;;;;;;10.40;6.80;;;;;;;10.48;56.86;101370.73;107109;1267;25348;-59
2024/03/14 07:04:02;;;;;;;10.10;8.10;;;;;;;10.46;56.73;101367.64;107105;1267;25519;-59
2024/03/14 07:06:31;;;;;;;10.10;7.70;;;;;;;10.45;56.81;101371.13;106350;1267;1003281;-59
2024/03/14 07:08:59;;;;;;;9.20;7.40;;;;;;;10.45;56.86;101372.16;106994;1256;25354;-58
2024/03/14 07:11:26;;;;;;;11.20;7.70;;;;;;;10.43;56.96;101376.70;106958;1267;25425;-59
2024/03/14 07:13:56;;;;;;;8.00;7.20;;;;;;;10.42;56.87;101380.01;106865;1269;25373;-59
2024/03/14 07:16:25;;;;;;;10.80;7.20;;;;;;;10.42;56.83;101380.52;107082;1267;25410;-60
2024/03/14 07:18:55;;;;;;;10.60;7.60;;;;;;;10.43;56.93;101381.20;107289;1267;25363;-58
2024/03/14 07:21:23;;;;;;;11.40;7.40;;;;;;;10.42;56.83;101385.04;106997;1267;25353;-58
2024/03/14 07:23:50;;;;;;;10.30;8.00;;;;;;;10.42;56.72;101390.23;106865;1267;25530;-58
2024/03/14 07:26:22;;;;;;;9.90;8.10;;;;;;;10.43;56.87;101392.48;107092;1267;25360;-58
2024/03/14 07:28:55;;;;;;;10.00;7.90;;;;;;;10.42;56.87;101396.31;106823;1274;24040;-58
2024/03/14 07:31:23;;;;;;;11.90;8.20;;;;;;;10.43;57.02;101399.07;106918;1267;25403;-57
2024/03/14 07:33:52;;;;;;;10.60;8.40;;;;;;;10.45;56.91;101403.39;106786;1271;25409;-58
2024/03/14 07:36:23;;;;;;;8.40;7.60;;;;;;;10.47;56.87;101403.36;107036;1267;24407;-58
2024/03/14 07:38:51;;;;;;;10.20;8.30;;;;;;;10.50;56.87;101406.10;107052;1274;25396;-58
2024/03/14 07:41:21;;;;;;;12.30;7.90;;;;;;;10.53;56.83;101407.98;107114;1267;26113;-58
2024/03/14 07:43:53;;;;;;;12.10;7.90;;;;;;;10.56;56.79;101407.78;107057;1267;22637;-58
2024/03/14 07:46:40;;;;;;;11.50;8.80;;;;;;;10.58;56.79;101411.23;107034;1267;25372;-58
2024/03/14 07:49:07;;;;;;;9.20;8.30;;;;;;;10.59;56.58;101412.96;107017;1267;26885;-58
2024/03/14 07:51:34;;;;;;;12.10;8.60;;;;;;;10.59;56.69;101416.92;106771;1269;25395;-58
2024/03/14 07:54:02;;;;;;;10.80;8.10;;;;;;;10.62;56.64;101417.77;106832;1267;25485;-58
2024/03/14 07:56:29;;;;;;;10.10;8.70;;;;;;;10.64;56.50;101420.86;107116;1267;25363;-58
2024/03/14 07:58:57;;;;;;;10.20;9.10;;;;;;;10.64;56.38;101417.23;106304;1267;1002847;-58
2024/03/14 08:01:27;;;;;;;11.00;8.90;;;;;;;10.64;56.46;101422.43;107015;1270;22628;-58
2024/03/14 08:03:57;;;;;;;13.80;9.00;;;;;;;10.67;56.57;101422.05;107131;1267;25345;-58
2024/03/14 08:06:25;;;;;;;11.50;8.50;;;;;;;10.70;56.57;101430.52;106859;1270;25479;-60
2024/03/14 08:08:52;;;;;;;11.90;9.10;;;;;;;10.71;56.52;101431.38;107073;1269;22528;-58
2024/03/14 08:11:21;;;;;;;13.70;9.80;;;;;;;10.72;56.48;101436.05;107050;1267;25678;-58
2024/03/14 08:13:58;;;;;;;11.00;9.60;;;;;;;10.74;56.47;101438.98;107173;1266;25345;-58
2024/03/14 08:16:25;;;;;;;12.00;8.80;;;;;;;10.76;56.45;101438.94;106797;1270;25358;-58
2024/03/14 08:18:52;;;;;;;10.50;8.60;;;;;;;10.78;56.37;101438.41;106850;1268;25345;-58
2024/03/14 08:21:22;;;;;;;9.70;8.60;;;;;;;10.79;56.30;101440.65;106793;1269;25385;-58
2024/03/14 08:23:51;;;;;;;10.60;9.50;;;;;;;10.80;56.38;101442.02;106807;1268;22566;-58
2024/03/14 08:26:18;;;;;;;12.20;9.60;;;;;;;10.82;56.56;101443.56;107065;1267;25402;-58
2024/03/14 08:28:45;;;;;;;10.60;9.50;;;;;;;10.85;56.28;101442.48;107057;1267;25574;-58
2024/03/14 08:31:15;;;;;;;10.70;9.10;;;;;;;10.86;56.32;101449.23;107082;1267;25347;-58
2024/03/14 08:33:45;;;;;;;11.20;9.30;;;;;;;10.87;56.16;101452.18;106979;1266;25382;-58
2024/03/14 08:36:15;;;;;;;12.00;9.20;;;;;;;10.87;56.14;101451.83;107098;1267;25512;-59
2024/03/14 08:38:43;;;;;;;10.50;9.40;;;;;;;10.87;56.07;101451.48;107142;1267;25418;-58
2024/03/14 08:41:13;;;;;;;13.40;10.70;;;;;;;10.88;56.10;101449.74;107092;1267;25373;-58
2024/03/14 08:43:40;;;;;;;11.40;9.90;;;;;;;10.90;56.05;101451.45;107143;1267;25345;-59
2024/03/14 08:46:08;;;;;;;11.20;10.00;;;;;;;10.92;55.97;101448.30;106997;1267;25422;-59
2024/03/14 08:48:35;;;;;;;14.00;10.00;;;;;;;10.93;56.03;101444.98;107043;1266;25345;-59
2024/03/14 08:51:04;;;;;;;10.70;9.60;;;;;;;10.95;56.01;101445.66;106243;1271;1003827;-58
2024/03/14 08:54:07;;;;;;;12.10;9.90;;;;;;;10.98;56.05;101449.96;107038;1269;22527;-59
2024/03/14 08:56:24;;;;;;;13.40;8.80;;;;;;;11.01;55.97;101454.25;107051;1267;25412;-58
2024/03/14 08:58:56;;;;;;;10.30;9.20;;;;;;;11.04;55.82;101455.97;107107;1267;22536;-58
2024/03/14 09:01:29;;;;;;;12.80;10.90;;;;;;;11.05;55.60;101455.27;107086;1267;22531;-59
2024/03/14 09:03:57;;;;;;;10.80;9.60;;;;;;;11.05;55.34;101452.65;106959;1266;25335;-57
2024/03/14 09:06:28;;;;;;;15.20;11.00;;;;;;;11.08;55.50;101455.38;107056;1267;22602;-55
2024/03/14 09:09:00;;;;;;;13.90;11.30;;;;;;;11.09;55.80;101451.73;106718;1267;25348;-56
2024/03/14 09:11:29;;;;;;;11.80;10.50;;;;;;;11.09;55.93;101455.20;106837;1267;25367;-56
2024/03/14 09:13:56;;;;;;;13.70;11.40;;;;;;;11.08;55.83;101463.72;106872;1267;25451;-56
2024/03/14 09:16:23;;;;;;;13.70;12.20;;;;;;;11.10;55.86;101468.92;107062;1271;25412;-57
2024/03/14 09:18:50;;;;;;;14.80;12.90;;;;;;;11.08;55.66;101466.50;107192;1267;24284;-56
2024/03/14 09:21:19;;;;;;;15.80;12.80;;;;;;;11.05;55.90;101468.09;107086;1267;22641;-56
2024/03/14 09:23:46;;;;;;;15.40;12.90;;;;;;;11.05;55.94;101470.89;106885;1271;25462;-57
2024/03/14 09:26:13;;;;;;;15.10;13.30;;;;;;;11.07;56.02;101472.26;107061;1269;25518;-57
2024/03/14 09:28:41;;;;;;;14.90;13.30;;;;;;;11.06;56.07;101468.27;107019;1271;23647;-58
2024/03/14 09:31:08;;;;;;;16.30;13.00;;;;;;;11.04;56.10;101471.07;106417;1267;1005473;-58
2024/03/14 09:33:39;;;;;;;15.40;12.60;;;;;;;11.03;55.92;101467.27;107312;1259;25514;-57
2024/03/14 09:36:09;;;;;;;15.60;13.10;;;;;;;11.03;56.04;101466.21;107345;1267;25440;-57
2024/03/14 09:38:36;;;;;;;19.10;13.90;;;;;;;11.04;56.14;101466.73;107062;1255;25617;-56
2024/03/14 09:41:04;;;;;;;17.80;14.40;;;;;;;11.04;56.05;101466.20;106886;1273;25404;-56
2024/03/14 09:43:44;;;;;;;16.90;14.60;;;;;;;11.08;56.19;101472.05;106866;1268;25421;-57
2024/03/14 09:46:13;;;;;;;20.20;13.80;;;;;;;11.10;56.20;101472.37;107301;1251;25433;-57
2024/03/14 09:48:40;;;;;;;16.40;14.40;;;;;;;11.11;56.05;101474.27;107167;1258;25455;-56
2024/03/14 09:51:09;;;;;;;17.70;14.00;;;;;;;11.11;55.85;101477.75;107058;1269;25366;-58
2024/03/14 09:53:36;;;;;;;17.00;13.90;;;;;;;11.11;55.97;101476.02;107086;1267;24199;-57
2024/03/14 09:56:05;;;;;;;18.70;14.20;;;;;;;11.10;55.87;101477.06;107143;1254;22576;-56
2024/03/14 09:58:32;;;;;;;18.60;15.40;;;;;;;11.11;55.92;101479.30;107291;1267;24511;-55
2024/03/14 10:01:03;;;;;;;14.60;12.90;;;;;;;11.12;55.98;101482.77;107189;1267;25418;-56
2024/03/14 10:03:31;;;;;;;18.80;14.10;;;;;;;11.14;55.86;101484.65;107096;1255;22756;-57
2024/03/14 10:05:58;;;;;;;16.80;14.30;;;;;;;11.16;55.92;101481.16;107266;1267;22523;-56
2024/03/14 10:08:27;;;;;;;18.10;13.60;;;;;;;11.17;55.66;101481.66;107195;1267;25317;-57
2024/03/14 10:10:54;;;;;;;17.00;13.40;;;;;;;11.20;55.66;101485.63;106151;1267;1003246;-56
2024/03/14 10:13:25;;;;;;;16.80;13.90;;;;;;;11.21;55.59;101490.29;106938;1267;25548;-56
2024/03/14 10:15:54;;;;;;;20.20;14.10;;;;;;;11.21;55.60;101490.81;107476;1267;24571;-57
2024/03/14 10:18:25;;;;;;;16.30;13.30;;;;;;;11.22;55.69;101491.85;107139;1267;22689;-57
2024/03/14 10:20:53;;;;;;;15.90;13.80;;;;;;;11.23;55.89;101491.14;106769;1269;24360;-57
2024/03/14 10:23:20;;;;;;;21.20;14.70;;;;;;;11.26;55.83;101494.23;107171;1267;22622;-58
2024/03/14 10:25:53;;;;;;;18.90;14.80;;;;;;;11.24;55.61;101492.69;106917;1267;22524;-57
2024/03/14 10:28:28;;;;;;;16.10;14.20;;;;;;;11.24;55.72;101492.52;107095;1267;25541;-57
2024/03/14 10:31:01;;;;;;;19.20;14.10;;;;;;;11.25;55.61;101489.90;107396;1269;22591;-58
2024/03/14 10:33:29;;;;;;;16.40;13.90;;;;;;;11.24;55.41;101484.35;107535;1267;24339;-58
2024/03/14 10:36:00;;;;;;;17.60;15.30;;;;;;;11.22;55.57;101485.95;106795;1270;24243;-56
2024/03/14 10:38:28;;;;;;;20.00;14.50;;;;;;;11.23;55.61;101485.59;106868;1267;24495;-56
2024/03/14 10:40:58;;;;;;;18.10;14.40;;;;;;;11.25;55.57;101486.43;106123;1259;1002626;-56
2024/03/14 10:43:28;;;;;;;16.00;14.40;;;;;;;11.25;55.55;101488.50;106977;1270;25354;-56
2024/03/14 10:45:55;;;;;;;14.80;13.00;;;;;;;11.27;55.57;101485.88;107058;1271;22526;-57
2024/03/14 10:48:22;;;;;;;15.50;13.80;;;;;;;11.28;55.59;101484.98;106657;1269;238122;-57
2024/03/14 10:50:54;;;;;;;18.70;14.90;;;;;;;11.32;55.66;101487.02;106874;1268;24340;-57
2024/03/14 10:53:22;;;;;;;18.90;14.50;;;;;;;11.35;55.65;101482.12;106646;1272;22523;-57
2024/03/14 10:55:51;;;;;;;18.10;13.90;;;;;;;11.37;55.61;101484.17;106610;1272;25250;-57
2024/03/14 10:58:18;;;;;;;16.40;13.00;;;;;;;11.39;55.57;101487.11;106448;1271;22572;-57
2024/03/14 11:00:46;;;;;;;14.20;12.70;;;;;;;11.41;55.46;101484.82;106192;1269;1002626;-56
2024/03/14 11:03:17;;;;;;;15.50;12.70;;;;;;;11.43;55.33;101487.76;106998;1269;25400;-56
2024/03/14 11:05:49;;;;;;;14.80;13.00;;;;;;;11.42;55.33;101489.15;106786;1261;25515;-58
2024/03/14 11:08:17;;;;;;;17.50;13.70;;;;;;;11.24;55.98;101492.52;107069;1267;22162;-57
2024/03/14 11:10:44;;;;;;;17.30;13.20;;;;;;;11.19;56.21;101495.37;107237;1267;22730;-57
2024/03/14 11:13:25;;;;;;;14.90;12.20;;;;;;;11.18;56.29;101490.17;107111;1267;22576;-57
2024/03/14 11:15:56;;;;;;;16.30;12.40;;;;;;;11.19;56.49;101494.50;107145;1267;25379;-59